createdAt,value
2018-06-18T00:01:42.271Z,76.30
2018-06-18T00:06:45.923Z,76.40
2018-06-18T00:11:49.984Z,76.80
2018-06-18T00:22:00.441Z,76.50
2018-06-18T00:27:04.484Z,76.50
2018-06-18T00:32:08.412Z,76.20
2018-06-18T00:37:12.514Z,75.80
2018-06-18T00:42:18.603Z,75.70
2018-06-18T00:47:22.376Z,75.90
2018-06-18T00:52:26.209Z,76.00
2018-06-18T00:57:30.178Z,77.30
2018-06-18T01:02:33.847Z,77.20
2018-06-18T01:07:38.115Z,77.60
2018-06-18T01:12:41.776Z,77.60
2018-06-18T01:17:45.412Z,77.70
2018-06-18T01:22:54.980Z,77.90
2018-06-18T01:27:58.986Z,77.70
2018-06-18T01:33:02.621Z,77.10
2018-06-18T01:38:06.303Z,76.80
2018-06-18T01:43:09.957Z,75.80
2018-06-18T01:48:15.071Z,76.50
2018-06-18T01:53:20.736Z,77.00
2018-06-18T01:58:24.905Z,76.30
2018-06-18T02:03:28.763Z,75.90
2018-06-18T02:08:33.057Z,76.60
2018-06-18T02:13:36.949Z,77.00
2018-06-18T02:18:40.917Z,76.60
2018-06-18T02:23:44.891Z,76.30
2018-06-18T02:28:54.219Z,76.50
2018-06-18T02:34:03.228Z,76.10
2018-06-18T02:39:07.918Z,75.10
2018-06-18T02:44:11.663Z,74.30
2018-06-18T02:49:16.179Z,74.50
2018-06-18T02:54:20.220Z,74.60
2018-06-18T02:59:23.931Z,75.00
2018-06-18T03:04:28.284Z,75.10
2018-06-18T03:09:32.325Z,75.80
2018-06-18T03:14:36.940Z,76.30
2018-06-18T03:19:45.988Z,76.80
2018-06-18T03:24:54.868Z,77.20
2018-06-18T03:29:59.063Z,76.40
2018-06-18T03:35:02.731Z,76.60
2018-06-18T03:40:06.823Z,75.80
2018-06-18T03:45:16.160Z,75.00
2018-06-18T03:50:19.843Z,75.30
2018-06-18T03:55:30.667Z,76.20
2018-06-18T04:00:42.208Z,75.40
2018-06-18T04:05:51.898Z,74.70
2018-06-18T04:11:02.674Z,74.40
2018-06-18T04:16:06.366Z,74.90
2018-06-18T04:21:10.029Z,75.60
2018-06-18T04:26:14.037Z,77.00
2018-06-18T04:31:18.361Z,76.80
2018-06-18T04:36:22.301Z,76.10
2018-06-18T04:41:25.952Z,76.30
2018-06-18T04:46:34.946Z,76.60
2018-06-18T04:51:38.619Z,76.10
2018-06-18T04:56:42.361Z,75.70
2018-06-18T05:01:46.024Z,76.40
2018-06-18T05:06:50.684Z,76.20
2018-06-18T05:11:54.350Z,75.00
2018-06-18T05:16:58.387Z,75.40
2018-06-18T05:22:02.644Z,76.10
2018-06-18T05:27:08.739Z,75.80
2018-06-18T05:32:12.440Z,75.50
2018-06-18T05:37:19.708Z,75.50
2018-06-18T05:42:23.745Z,74.80
2018-06-18T05:47:27.388Z,74.40
2018-06-18T05:52:31.922Z,74.20
2018-06-18T05:57:36.374Z,74.40
2018-06-18T06:02:40.560Z,74.30
2018-06-18T06:07:45.115Z,74.90
2018-06-18T06:12:49.137Z,73.40
2018-06-18T06:17:53.287Z,72.60
2018-06-18T06:22:57.220Z,73.00
2018-06-18T06:28:00.899Z,71.50
2018-06-18T06:33:04.810Z,70.60
2018-06-18T06:38:08.635Z,69.90
2018-06-18T06:43:13.075Z,69.40
2018-06-18T06:48:16.850Z,70.40
2018-06-18T06:53:20.516Z,69.50
2018-06-18T07:03:28.119Z,66.80
2018-06-18T07:08:31.783Z,64.50
2018-06-18T07:13:36.125Z,62.70
2018-06-18T07:18:40.472Z,60.90
2018-06-18T07:23:45.926Z,59.80
2018-06-18T07:28:50.036Z,58.80
2018-06-18T07:33:54.453Z,56.90
2018-06-18T07:38:58.645Z,56.70
2018-06-18T07:44:02.578Z,55.70
2018-06-18T07:49:06.663Z,56.40
2018-06-18T07:54:10.617Z,55.30
2018-06-18T07:59:14.291Z,56.50
2018-06-18T08:04:18.338Z,55.80
2018-06-18T08:09:22.485Z,53.50
2018-06-18T08:14:26.591Z,54.20
2018-06-18T08:19:30.977Z,52.80
2018-06-18T08:24:34.682Z,52.00
2018-06-18T08:29:39.088Z,51.50
2018-06-18T08:34:42.786Z,51.40
2018-06-18T08:39:46.932Z,52.80
2018-06-18T08:44:53.025Z,50.10
2018-06-18T08:50:02.333Z,49.10
2018-06-18T08:55:12.500Z,47.70
2018-06-18T09:00:21.417Z,49.40
2018-06-18T09:05:30.928Z,49.10
2018-06-18T09:10:36.445Z,48.80
2018-06-18T09:15:40.137Z,48.00
2018-06-18T09:20:43.816Z,49.30
2018-06-18T09:25:52.908Z,49.00
2018-06-18T09:30:57.489Z,49.90
2018-06-18T09:36:01.992Z,48.80
2018-06-18T09:41:06.284Z,49.80
2018-06-18T09:46:09.985Z,48.70
2018-06-18T09:51:18.934Z,48.20
2018-06-18T09:56:28.221Z,47.80
2018-06-18T10:01:33.164Z,45.60
2018-06-18T10:06:38.159Z,45.00
2018-06-18T10:11:41.978Z,45.30
2018-06-18T10:16:45.610Z,44.30
2018-06-18T10:21:49.897Z,43.90
2018-06-18T10:26:53.894Z,42.70
2018-06-18T10:31:59.481Z,44.70
2018-06-18T10:37:08.466Z,43.40
2018-06-18T10:42:17.647Z,43.90
2018-06-18T10:47:21.710Z,43.20
2018-06-18T10:52:25.859Z,45.90
2018-06-18T10:57:29.493Z,44.50
2018-06-18T11:02:33.240Z,44.10
2018-06-18T11:07:36.908Z,44.40
2018-06-18T11:12:40.676Z,43.20
2018-06-18T11:17:50.629Z,42.60
2018-06-18T11:23:00.454Z,43.20
2018-06-18T11:28:04.187Z,42.90
2018-06-18T11:33:07.912Z,42.00
2018-06-18T11:38:11.623Z,41.60
2018-06-18T11:43:15.682Z,42.10
2018-06-18T11:48:20.902Z,41.80
2018-06-18T11:53:25.139Z,40.40
2018-06-18T11:58:34.458Z,40.20
2018-06-18T12:03:43.565Z,38.50
2018-06-18T12:08:52.771Z,38.20
2018-06-18T12:13:57.199Z,36.60
2018-06-18T12:19:00.945Z,37.50
2018-06-18T12:24:05.975Z,39.20
2018-06-18T12:29:09.836Z,38.10
2018-06-18T12:34:13.507Z,38.20
2018-06-18T12:39:17.220Z,37.10
2018-06-18T12:49:29.485Z,37.60
2018-06-18T12:54:38.994Z,38.20
2018-06-18T12:59:42.724Z,37.30
2018-06-18T13:04:54.426Z,36.70
2018-06-18T13:09:58.713Z,38.10
2018-06-18T13:15:02.866Z,35.40
2018-06-18T13:20:06.620Z,37.00
2018-06-18T13:25:10.324Z,37.90
2018-06-18T13:30:14.015Z,37.10
2018-06-18T13:35:18.297Z,35.70
2018-06-18T13:40:27.397Z,36.60
2018-06-18T13:45:43.099Z,36.00
2018-06-18T13:50:47.048Z,36.80
2018-06-18T13:55:50.921Z,35.80
2018-06-18T14:00:57.394Z,34.90
2018-06-18T14:06:01.196Z,34.90
2018-06-18T14:11:06.240Z,35.40
2018-06-18T14:16:12.162Z,34.00
2018-06-18T14:21:16.441Z,33.80
2018-06-18T14:26:20.132Z,34.40
2018-06-18T14:31:29.197Z,33.90
2018-06-18T14:36:38.458Z,34.10
2018-06-18T14:41:42.327Z,33.20
2018-06-18T14:46:46.331Z,31.90
2018-06-18T14:51:50.072Z,31.90
2018-06-18T14:56:54.972Z,32.60
2018-06-18T15:01:59.011Z,32.70
2018-06-18T15:07:02.684Z,34.10
2018-06-18T15:12:06.526Z,34.40
2018-06-18T15:17:10.628Z,34.70
2018-06-18T15:22:14.392Z,34.70
2018-06-18T15:27:18.428Z,34.90
2018-06-18T15:32:22.058Z,36.00
2018-06-18T15:37:25.712Z,37.30
2018-06-18T15:42:29.396Z,35.80
2018-06-18T15:47:33.202Z,36.00
2018-06-18T15:52:37.252Z,35.60
2018-06-18T15:57:40.986Z,35.60
2018-06-18T16:02:44.759Z,36.10
2018-06-18T16:07:48.820Z,35.40
2018-06-18T16:12:53.807Z,35.70
2018-06-18T16:17:59.124Z,35.80
2018-06-18T16:23:02.767Z,33.80
2018-06-18T16:28:07.332Z,34.70
2018-06-18T16:33:11.392Z,33.70
2018-06-18T16:38:15.593Z,33.90
2018-06-18T16:43:20.306Z,35.00
2018-06-18T16:48:24.384Z,33.50
2018-06-18T16:53:28.783Z,34.20
2018-06-18T16:58:32.468Z,34.60
2018-06-18T17:03:36.605Z,34.70
2018-06-18T17:08:40.479Z,34.30
2018-06-18T17:13:44.136Z,34.00
2018-06-18T17:18:47.859Z,32.90
2018-06-18T17:23:53.561Z,33.80
2018-06-18T17:28:57.198Z,34.60
2018-06-18T17:34:01.463Z,35.00
2018-06-18T17:39:08.528Z,34.30
2018-06-18T17:44:12.201Z,34.60
2018-06-18T17:54:19.374Z,35.70
2018-06-18T17:59:23.028Z,35.60
2018-06-18T18:04:26.708Z,36.30
2018-06-18T18:09:30.359Z,35.80
2018-06-18T18:14:34.017Z,35.70
2018-06-18T18:19:37.704Z,36.90
2018-06-18T18:24:42.416Z,37.50
2018-06-18T18:29:46.102Z,37.90
2018-06-18T18:34:49.817Z,38.40
2018-06-18T18:39:53.520Z,40.40
2018-06-18T18:44:57.338Z,40.80
2018-06-18T18:50:01.237Z,41.60
2018-06-18T18:55:46.420Z,42.90
2018-06-18T19:00:50.838Z,44.00
2018-06-18T19:05:55.892Z,44.80
2018-06-18T19:11:01.478Z,45.40
2018-06-18T19:16:05.438Z,46.10
2018-06-18T19:21:10.551Z,45.90
2018-06-18T19:26:14.233Z,46.40
2018-06-18T19:31:22.753Z,46.80
2018-06-18T19:36:26.429Z,47.60
2018-06-18T19:41:30.073Z,48.20
2018-06-18T19:46:39.297Z,48.80
2018-06-18T19:51:43.001Z,49.40
2018-06-18T19:56:46.661Z,50.10
2018-06-18T20:01:50.366Z,50.50
2018-06-18T20:06:55.135Z,51.10
2018-06-18T20:11:59.280Z,50.50
2018-06-18T20:17:03.029Z,51.00
2018-06-18T20:22:07.038Z,51.30
2018-06-18T20:27:10.879Z,51.60
2018-06-18T20:32:14.612Z,51.10
2018-06-18T20:37:18.332Z,50.80
2018-06-18T20:42:22.712Z,50.80
2018-06-18T20:47:26.352Z,50.90
2018-06-18T20:52:30.099Z,50.20
2018-06-18T20:57:34.832Z,51.40
2018-06-18T21:02:38.559Z,51.40
2018-06-18T21:07:42.207Z,51.90
2018-06-18T21:12:47.948Z,52.50
2018-06-18T21:17:53.377Z,51.90
2018-06-18T21:22:57.121Z,51.80
2018-06-18T21:28:01.266Z,49.20
2018-06-18T21:33:05.280Z,51.10
2018-06-18T21:38:10.363Z,51.80
2018-06-18T21:43:17.133Z,51.40
2018-06-18T21:48:20.858Z,51.90
2018-06-18T21:53:27.351Z,51.90
2018-06-18T21:58:31.464Z,51.90
2018-06-18T22:03:35.517Z,52.20
2018-06-18T22:08:39.322Z,52.90
2018-06-18T22:13:43.501Z,53.90
2018-06-18T22:18:47.212Z,53.50
2018-06-18T22:23:51.233Z,52.60
2018-06-18T22:28:54.905Z,53.20
2018-06-18T22:33:58.681Z,52.40
2018-06-18T22:39:02.361Z,52.30
2018-06-18T22:44:06.479Z,52.70
2018-06-18T22:49:11.139Z,53.30
2018-06-18T22:54:14.825Z,53.60
2018-06-18T22:59:18.455Z,53.90
2018-06-18T23:04:22.570Z,53.80
2018-06-18T23:09:26.917Z,54.70
2018-06-18T23:14:30.575Z,54.90
2018-06-18T23:19:34.988Z,55.10
2018-06-18T23:24:38.840Z,55.20
2018-06-18T23:29:43.712Z,55.30
2018-06-18T23:34:47.362Z,55.70
2018-06-18T23:39:52.357Z,56.50
2018-06-18T23:44:56.600Z,56.40
2018-06-18T23:50:00.482Z,56.40
2018-06-18T23:55:04.185Z,56.80
